createdAt,value
2019-05-26T00:00:01.186Z,78.16
2019-05-26T00:02:32.130Z,78.42
2019-05-26T00:05:03.033Z,79.00
2019-05-26T00:07:34.001Z,78.83
2019-05-26T00:10:05.303Z,78.39
2019-05-26T00:12:36.391Z,78.73
2019-05-26T00:15:07.662Z,79.19
2019-05-26T00:17:38.604Z,79.44
2019-05-26T00:20:09.973Z,78.82
2019-05-26T00:22:40.934Z,78.70
2019-05-26T00:25:12.080Z,78.37
2019-05-26T00:27:42.907Z,78.91
2019-05-26T00:30:14.241Z,79.50
2019-05-26T00:32:45.290Z,79.81
2019-05-26T00:35:16.345Z,79.68
2019-05-26T00:37:49.625Z,79.79
2019-05-26T00:40:20.976Z,79.94
2019-05-26T00:42:52.873Z,80.16
2019-05-26T00:45:23.910Z,80.74
2019-05-26T00:47:54.847Z,80.80
2019-05-26T00:50:25.870Z,80.30
2019-05-26T00:52:57.064Z,80.04
2019-05-26T00:55:28.270Z,80.26
2019-05-26T00:57:59.172Z,80.26
2019-05-26T01:00:40.283Z,79.80
2019-05-26T01:03:11.487Z,79.98
2019-05-26T01:05:42.616Z,80.53
2019-05-26T01:08:13.852Z,81.02
2019-05-26T01:10:44.793Z,81.01
2019-05-26T01:13:15.787Z,81.14
2019-05-26T01:15:46.692Z,81.12
2019-05-26T01:18:17.665Z,80.90
2019-05-26T01:20:48.546Z,81.15
2019-05-26T01:23:19.493Z,81.61
2019-05-26T01:25:50.341Z,82.20
2019-05-26T01:28:21.557Z,82.08
2019-05-26T01:30:52.529Z,82.59
2019-05-26T01:33:23.508Z,82.76
2019-05-26T01:35:54.476Z,82.60
2019-05-26T01:38:26.735Z,82.18
2019-05-26T01:40:57.535Z,82.25
2019-05-26T01:43:28.438Z,82.34
2019-05-26T01:45:59.355Z,82.10
2019-05-26T01:48:30.301Z,82.61
2019-05-26T01:51:01.541Z,82.75
2019-05-26T01:53:32.390Z,82.69
2019-05-26T01:56:04.090Z,83.21
2019-05-26T01:58:35.076Z,82.74
2019-05-26T02:01:06.410Z,82.80
2019-05-26T02:03:37.639Z,83.13
2019-05-26T02:06:08.887Z,83.30
2019-05-26T02:08:40.007Z,83.28
2019-05-26T02:11:11.346Z,83.38
2019-05-26T02:13:43.470Z,83.16
2019-05-26T02:16:14.370Z,82.61
2019-05-26T02:18:45.607Z,82.81
2019-05-26T02:21:16.857Z,82.90
2019-05-26T02:23:48.795Z,82.77
2019-05-26T02:26:20.093Z,83.06
2019-05-26T02:28:50.936Z,82.82
2019-05-26T02:31:22.171Z,82.46
2019-05-26T02:33:53.088Z,82.76
2019-05-26T02:36:24.065Z,82.55
2019-05-26T02:39:02.600Z,82.71
2019-05-26T02:41:28.177Z,82.31
2019-05-26T02:43:59.051Z,82.35
2019-05-26T02:46:30.355Z,83.09
2019-05-26T02:49:01.345Z,83.69
2019-05-26T02:51:32.602Z,83.44
2019-05-26T02:54:03.963Z,84.17
2019-05-26T02:56:35.333Z,84.07
2019-05-26T02:59:06.601Z,84.30
2019-05-26T03:01:38.456Z,84.71
2019-05-26T03:04:09.855Z,84.59
2019-05-26T03:06:41.979Z,84.28
2019-05-26T03:09:22.741Z,84.04
2019-05-26T03:11:50.411Z,83.61
2019-05-26T03:14:21.673Z,83.52
2019-05-26T03:16:54.556Z,83.20
2019-05-26T03:19:27.419Z,82.91
2019-05-26T03:22:00.445Z,82.78
2019-05-26T03:24:32.708Z,82.69
2019-05-26T03:27:03.952Z,82.60
2019-05-26T03:29:34.814Z,82.12
2019-05-26T03:32:06.169Z,82.19
2019-05-26T03:34:36.994Z,83.19
2019-05-26T03:37:08.335Z,82.87
2019-05-26T03:39:45.490Z,82.58
2019-05-26T03:42:12.452Z,82.31
2019-05-26T03:44:43.661Z,82.32
2019-05-26T03:47:16.955Z,81.90
2019-05-26T03:49:48.380Z,82.29
2019-05-26T03:52:19.660Z,81.99
2019-05-26T03:54:50.529Z,81.71
2019-05-26T03:57:22.714Z,82.42
2019-05-26T03:59:53.837Z,82.03
2019-05-26T04:02:25.254Z,81.65
2019-05-26T04:04:56.059Z,81.51
2019-05-26T04:07:27.046Z,81.50
2019-05-26T04:10:04.591Z,81.24
2019-05-26T04:12:30.869Z,81.42
2019-05-26T04:15:01.879Z,81.55
2019-05-26T04:17:32.938Z,81.59
2019-05-26T04:20:03.834Z,81.67
2019-05-26T04:22:34.669Z,81.46
2019-05-26T04:25:06.712Z,81.72
2019-05-26T04:27:37.627Z,81.64
2019-05-26T04:30:08.735Z,81.32
2019-05-26T04:32:39.633Z,80.37
2019-05-26T04:35:10.603Z,80.15
2019-05-26T04:37:41.432Z,81.70
2019-05-26T04:40:26.764Z,81.80
2019-05-26T04:42:45.321Z,81.96
2019-05-26T04:45:16.379Z,81.74
2019-05-26T04:47:47.384Z,81.73
2019-05-26T04:50:18.371Z,81.34
2019-05-26T04:53:05.216Z,80.24
2019-05-26T04:55:22.078Z,79.05
2019-05-26T04:57:53.986Z,77.56
2019-05-26T05:00:25.069Z,76.57
2019-05-26T05:02:56.074Z,75.21
2019-05-26T05:05:27.045Z,73.67
2019-05-26T05:07:57.908Z,73.10
2019-05-26T05:10:41.251Z,73.03
2019-05-26T05:13:01.293Z,71.83
2019-05-26T05:15:32.209Z,67.63
2019-05-26T05:18:03.315Z,65.59
2019-05-26T05:20:34.187Z,65.59
2019-05-26T05:23:05.237Z,63.74
2019-05-26T05:25:36.078Z,60.61
2019-05-26T05:28:06.976Z,60.01
2019-05-26T05:30:37.928Z,58.67
2019-05-26T05:33:08.791Z,57.06
2019-05-26T05:35:39.670Z,56.88
2019-05-26T05:38:10.848Z,54.83
2019-05-26T05:40:58.017Z,54.50
2019-05-26T05:43:14.621Z,52.64
2019-05-26T05:45:46.579Z,50.76
2019-05-26T05:48:17.442Z,51.08
2019-05-26T05:50:48.332Z,56.49
2019-05-26T05:53:19.181Z,55.49
2019-05-26T05:55:50.074Z,54.56
2019-05-26T05:58:20.865Z,54.54
2019-05-26T06:00:51.952Z,51.73
2019-05-26T06:03:22.740Z,52.16
2019-05-26T06:05:53.864Z,51.98
2019-05-26T06:08:24.954Z,50.99
2019-05-26T06:10:55.910Z,51.47
2019-05-26T06:13:26.768Z,51.11
2019-05-26T06:15:57.592Z,51.58
2019-05-26T06:18:28.484Z,52.49
2019-05-26T06:20:59.327Z,50.25
2019-05-26T06:23:30.162Z,49.28
2019-05-26T06:26:01.038Z,49.40
2019-05-26T06:28:33.054Z,49.12
2019-05-26T06:31:04.100Z,49.44
2019-05-26T06:33:35.154Z,49.84
2019-05-26T06:36:06.059Z,51.85
2019-05-26T06:38:37.931Z,50.97
2019-05-26T06:41:08.793Z,51.01
2019-05-26T06:43:39.607Z,50.44
2019-05-26T06:46:10.467Z,47.93
2019-05-26T06:48:41.289Z,45.84
2019-05-26T06:51:12.193Z,46.47
2019-05-26T06:53:43.284Z,47.06
2019-05-26T06:56:14.194Z,46.40
2019-05-26T06:58:45.049Z,46.27
2019-05-26T07:01:16.042Z,47.90
2019-05-26T07:03:46.978Z,49.39
2019-05-26T07:06:17.915Z,50.59
2019-05-26T07:08:48.736Z,46.28
2019-05-26T07:11:19.709Z,46.43
2019-05-26T07:13:50.572Z,43.73
2019-05-26T07:16:36.803Z,43.62
2019-05-26T07:18:54.122Z,44.04
2019-05-26T07:21:24.981Z,43.87
2019-05-26T07:23:55.857Z,43.73
2019-05-26T07:26:26.710Z,41.43
2019-05-26T07:28:57.572Z,40.84
2019-05-26T07:31:28.442Z,39.34
2019-05-26T07:33:59.404Z,38.15
2019-05-26T07:36:30.432Z,40.33
2019-05-26T07:39:01.492Z,38.83
2019-05-26T07:41:33.714Z,42.08
2019-05-26T07:44:04.672Z,41.56
2019-05-26T07:46:35.547Z,42.20
2019-05-26T07:49:06.739Z,42.37
2019-05-26T07:51:37.675Z,41.38
2019-05-26T07:54:22.733Z,42.05
2019-05-26T07:56:41.116Z,44.58
2019-05-26T07:59:12.053Z,44.75
2019-05-26T08:01:42.933Z,42.89
2019-05-26T08:04:13.835Z,41.22
2019-05-26T08:06:44.745Z,44.67
2019-05-26T08:09:15.683Z,41.95
2019-05-26T08:11:46.662Z,43.71
2019-05-26T08:14:17.751Z,40.14
2019-05-26T08:16:48.801Z,40.17
2019-05-26T08:19:19.657Z,40.59
2019-05-26T08:21:50.427Z,39.45
2019-05-26T08:24:21.292Z,38.84
2019-05-26T08:26:52.105Z,38.90
2019-05-26T08:29:22.942Z,38.91
2019-05-26T08:31:53.893Z,38.92
2019-05-26T08:34:24.959Z,38.60
2019-05-26T08:36:55.886Z,38.94
2019-05-26T08:39:26.775Z,40.16
2019-05-26T08:41:57.674Z,40.89
2019-05-26T08:44:28.502Z,42.48
2019-05-26T08:46:59.413Z,41.62
2019-05-26T08:49:36.262Z,41.32
2019-05-26T08:52:07.265Z,43.00
2019-05-26T08:54:38.048Z,41.86
2019-05-26T08:57:09.146Z,40.15
2019-05-26T08:59:40.052Z,41.73
2019-05-26T09:02:11.033Z,40.02
2019-05-26T09:04:41.812Z,37.93
2019-05-26T09:07:12.803Z,39.09
2019-05-26T09:09:43.904Z,38.61
2019-05-26T09:12:15.167Z,39.40
2019-05-26T09:14:45.982Z,39.44
2019-05-26T09:17:17.021Z,40.02
2019-05-26T09:19:47.848Z,39.36
2019-05-26T09:22:18.646Z,39.06
2019-05-26T09:24:49.593Z,39.02
2019-05-26T09:27:20.418Z,36.98
2019-05-26T09:29:51.372Z,37.52
2019-05-26T09:32:22.251Z,37.93
2019-05-26T09:34:53.235Z,37.03
2019-05-26T09:37:24.142Z,35.69
2019-05-26T09:39:54.997Z,34.18
2019-05-26T09:42:25.831Z,36.33
2019-05-26T09:44:56.749Z,36.92
2019-05-26T09:47:27.716Z,37.13
2019-05-26T09:49:58.752Z,36.01
2019-05-26T09:52:29.728Z,36.01
2019-05-26T09:55:00.618Z,35.29
2019-05-26T09:57:31.445Z,35.62
2019-05-26T10:00:02.368Z,33.32
2019-05-26T10:02:33.274Z,30.48
2019-05-26T10:05:04.181Z,31.88
2019-05-26T10:07:35.148Z,33.05
2019-05-26T10:10:07.181Z,34.12
2019-05-26T10:12:38.129Z,31.56
2019-05-26T10:15:10.609Z,31.91
2019-05-26T10:17:41.724Z,28.43
2019-05-26T10:20:12.953Z,29.87
2019-05-26T10:22:43.924Z,31.19
2019-05-26T10:25:15.170Z,33.64
2019-05-26T10:27:46.046Z,33.88
2019-05-26T10:30:17.344Z,33.00
2019-05-26T10:32:48.229Z,31.96
2019-05-26T10:35:19.207Z,33.17
2019-05-26T10:37:50.086Z,33.60
2019-05-26T10:40:21.170Z,32.82
2019-05-26T10:42:52.119Z,32.95
2019-05-26T10:45:23.097Z,33.34
2019-05-26T10:47:53.985Z,32.19
2019-05-26T10:50:24.955Z,32.55
2019-05-26T10:52:55.846Z,33.76
2019-05-26T10:55:26.646Z,31.85
2019-05-26T10:57:57.626Z,31.30
2019-05-26T11:00:28.665Z,32.69
2019-05-26T11:02:59.517Z,31.99
2019-05-26T11:05:30.410Z,32.26
2019-05-26T11:08:01.229Z,31.49
2019-05-26T11:10:33.333Z,32.18
2019-05-26T11:13:04.352Z,33.14
2019-05-26T11:15:35.404Z,32.17
2019-05-26T11:18:06.472Z,32.93
2019-05-26T11:20:37.367Z,30.54
2019-05-26T11:23:08.372Z,33.20
2019-05-26T11:25:39.335Z,31.04
2019-05-26T11:28:10.084Z,31.35
2019-05-26T11:30:41.172Z,31.48
2019-05-26T11:33:12.211Z,33.76
2019-05-26T11:35:43.119Z,33.57
2019-05-26T11:38:13.944Z,33.05
2019-05-26T11:40:44.827Z,33.31
2019-05-26T11:43:17.141Z,32.67
2019-05-26T11:45:48.366Z,33.48
2019-05-26T11:48:19.241Z,31.56
2019-05-26T11:50:50.170Z,32.35
2019-05-26T11:53:21.102Z,33.96
2019-05-26T11:55:53.018Z,33.53
2019-05-26T11:58:23.971Z,35.60
2019-05-26T12:00:55.955Z,33.90
2019-05-26T12:03:26.827Z,33.39
2019-05-26T12:05:57.827Z,35.67
2019-05-26T12:08:28.668Z,35.14
2019-05-26T12:10:59.502Z,35.05
2019-05-26T12:13:30.529Z,34.83
2019-05-26T12:16:01.437Z,35.06
2019-05-26T12:18:32.241Z,34.50
2019-05-26T12:21:03.094Z,34.00
2019-05-26T12:23:34.152Z,34.08
2019-05-26T12:26:05.285Z,33.75
2019-05-26T12:28:36.295Z,33.00
2019-05-26T12:31:07.350Z,34.04
2019-05-26T12:33:38.177Z,33.96
2019-05-26T12:36:09.369Z,35.99
2019-05-26T12:38:51.149Z,35.11
2019-05-26T12:41:24.816Z,35.52
2019-05-26T12:43:55.731Z,32.52
2019-05-26T12:46:26.588Z,32.30
2019-05-26T12:48:57.420Z,32.95
2019-05-26T12:51:28.344Z,31.89
2019-05-26T12:53:59.309Z,32.06
2019-05-26T12:56:30.148Z,32.42
2019-05-26T12:59:00.942Z,33.66
2019-05-26T13:01:31.782Z,34.03
2019-05-26T13:04:02.638Z,33.67
2019-05-26T13:06:33.597Z,35.87
2019-05-26T13:09:06.407Z,35.33
2019-05-26T13:11:37.177Z,34.44
2019-05-26T13:14:08.210Z,33.29
2019-05-26T13:16:39.158Z,33.71
2019-05-26T13:19:09.968Z,32.69
2019-05-26T13:21:40.893Z,33.87
2019-05-26T13:24:11.747Z,33.46
2019-05-26T13:26:42.719Z,31.01
2019-05-26T13:29:13.631Z,29.33
2019-05-26T13:31:44.631Z,29.85
2019-05-26T13:34:15.458Z,31.24
2019-05-26T13:36:46.276Z,31.57
2019-05-26T13:39:17.100Z,32.60
2019-05-26T13:41:47.929Z,31.86
2019-05-26T13:44:18.959Z,32.13
2019-05-26T13:46:49.897Z,32.23
2019-05-26T13:49:20.780Z,32.31
2019-05-26T13:51:51.600Z,31.57
2019-05-26T13:54:22.436Z,31.98
2019-05-26T13:56:53.397Z,30.25
2019-05-26T13:59:24.356Z,30.51
2019-05-26T14:01:55.220Z,30.44
2019-05-26T14:04:26.110Z,30.50
2019-05-26T14:06:57.013Z,30.64
2019-05-26T14:09:27.858Z,31.42
2019-05-26T14:11:58.852Z,32.18
2019-05-26T14:14:29.780Z,31.27
2019-05-26T14:17:02.804Z,31.65
2019-05-26T14:19:34.716Z,31.70
2019-05-26T14:22:06.237Z,32.43
2019-05-26T14:24:52.453Z,32.97
2019-05-26T14:27:09.774Z,32.59
2019-05-26T14:29:40.580Z,32.55
2019-05-26T14:32:11.488Z,31.79
2019-05-26T14:34:42.373Z,31.87
2019-05-26T14:37:13.351Z,31.83
2019-05-26T14:39:44.149Z,31.98
2019-05-26T14:42:15.339Z,32.43
2019-05-26T14:44:46.487Z,32.17
2019-05-26T14:47:17.414Z,32.83
2019-05-26T14:49:48.304Z,32.76
2019-05-26T14:52:19.128Z,32.26
2019-05-26T14:54:49.969Z,30.21
2019-05-26T14:57:21.035Z,30.99
2019-05-26T14:59:51.845Z,32.68
2019-05-26T15:02:22.672Z,33.87
2019-05-26T15:04:53.487Z,33.30
2019-05-26T15:07:24.312Z,35.04
2019-05-26T15:09:55.627Z,31.75
2019-05-26T15:12:26.576Z,31.92
2019-05-26T15:14:58.096Z,33.00
2019-05-26T15:17:30.159Z,32.57
2019-05-26T15:20:01.778Z,32.50
2019-05-26T15:22:32.748Z,32.69
2019-05-26T15:25:04.181Z,32.90
2019-05-26T15:27:35.035Z,33.43
2019-05-26T15:30:07.821Z,33.45
2019-05-26T15:32:39.871Z,33.66
2019-05-26T15:35:11.189Z,33.43
2019-05-26T15:37:42.041Z,32.96
2019-05-26T15:40:13.732Z,33.56
2019-05-26T15:42:44.527Z,33.44
2019-05-26T15:45:16.549Z,33.00
2019-05-26T15:47:47.622Z,33.08
2019-05-26T15:50:18.698Z,33.49
2019-05-26T15:52:49.642Z,33.04
2019-05-26T15:55:20.665Z,32.15
2019-05-26T15:57:52.029Z,32.12
2019-05-26T16:00:24.986Z,32.01
2019-05-26T16:02:57.213Z,32.11
2019-05-26T16:05:28.128Z,32.25
2019-05-26T16:07:59.068Z,32.96
2019-05-26T16:10:29.952Z,33.27
2019-05-26T16:13:00.791Z,33.31
2019-05-26T16:15:31.746Z,33.61
2019-05-26T16:18:02.842Z,33.51
2019-05-26T16:20:33.894Z,33.55
2019-05-26T16:23:08.424Z,34.18
2019-05-26T16:25:37.562Z,34.65
2019-05-26T16:28:08.581Z,35.18
2019-05-26T16:30:39.436Z,35.62
2019-05-26T16:33:10.376Z,36.21
2019-05-26T16:35:41.404Z,36.25
2019-05-26T16:38:12.298Z,36.53
2019-05-26T16:40:43.072Z,36.72
2019-05-26T16:43:13.862Z,36.34
2019-05-26T16:45:55.597Z,36.63
2019-05-26T16:48:17.282Z,37.03
2019-05-26T16:50:48.363Z,37.48
2019-05-26T16:53:19.172Z,37.18
2019-05-26T16:55:49.999Z,37.66
2019-05-26T16:58:20.907Z,37.37
2019-05-26T17:00:51.909Z,37.01
2019-05-26T17:03:22.824Z,37.08
2019-05-26T17:06:06.977Z,37.28
2019-05-26T17:08:26.323Z,37.75
2019-05-26T17:10:58.139Z,38.25
2019-05-26T17:13:28.980Z,38.57
2019-05-26T17:15:59.809Z,38.82
2019-05-26T17:18:30.636Z,39.00
2019-05-26T17:21:01.484Z,39.93
2019-05-26T17:23:32.380Z,39.99
2019-05-26T17:26:03.444Z,40.38
2019-05-26T17:28:34.337Z,41.81
2019-05-26T17:31:06.602Z,41.62
2019-05-26T17:33:37.479Z,42.01
2019-05-26T17:36:08.359Z,42.07
2019-05-26T17:38:39.150Z,42.95
2019-05-26T17:41:10.162Z,42.91
2019-05-26T17:43:41.193Z,42.92
2019-05-26T17:46:15.135Z,43.12
2019-05-26T17:48:44.722Z,42.98
2019-05-26T17:51:16.617Z,42.70
2019-05-26T17:53:47.512Z,42.73
2019-05-26T17:56:18.320Z,42.64
2019-05-26T17:58:49.137Z,42.65
2019-05-26T18:01:20.041Z,42.61
2019-05-26T18:03:50.887Z,43.08
2019-05-26T18:06:22.139Z,42.97
2019-05-26T18:08:52.992Z,43.00
2019-05-26T18:11:23.878Z,43.09
2019-05-26T18:13:54.775Z,43.01
2019-05-26T18:16:25.634Z,42.94
2019-05-26T18:18:57.598Z,42.90
2019-05-26T18:21:28.546Z,43.30
2019-05-26T18:23:59.563Z,43.58
2019-05-26T18:26:30.951Z,43.51
2019-05-26T18:29:01.952Z,43.67
2019-05-26T18:31:33.886Z,44.00
2019-05-26T18:34:05.011Z,43.63
2019-05-26T18:36:35.976Z,43.51
2019-05-26T18:39:08.775Z,43.09
2019-05-26T18:41:39.650Z,42.98
2019-05-26T18:44:10.570Z,43.17
2019-05-26T18:46:41.519Z,43.30
2019-05-26T18:49:12.373Z,43.15
2019-05-26T18:51:43.194Z,42.79
2019-05-26T18:54:13.978Z,42.58
2019-05-26T18:56:46.069Z,42.46
2019-05-26T18:59:17.002Z,42.35
2019-05-26T19:01:47.862Z,42.07
2019-05-26T19:04:18.735Z,42.84
2019-05-26T19:06:49.725Z,43.03
2019-05-26T19:09:23.568Z,44.44
2019-05-26T19:11:54.477Z,45.39
2019-05-26T19:14:25.427Z,46.25
2019-05-26T19:16:56.446Z,46.22
2019-05-26T19:19:27.385Z,46.84
2019-05-26T19:21:58.447Z,46.96
2019-05-26T19:24:30.443Z,46.95
2019-05-26T19:27:01.373Z,47.68
2019-05-26T19:29:32.345Z,47.44
2019-05-26T19:32:03.253Z,47.99
2019-05-26T19:34:34.135Z,48.88
2019-05-26T19:37:05.259Z,49.25
2019-05-26T19:39:36.159Z,49.23
2019-05-26T19:42:07.450Z,49.36
2019-05-26T19:44:38.349Z,49.93
2019-05-26T19:47:09.281Z,49.84
2019-05-26T19:49:40.083Z,50.12
2019-05-26T19:52:12.067Z,50.84
2019-05-26T19:54:42.979Z,51.51
2019-05-26T19:57:13.860Z,51.09
2019-05-26T19:59:44.728Z,51.94
2019-05-26T20:02:18.774Z,52.46
2019-05-26T20:04:48.433Z,53.19
2019-05-26T20:07:22.502Z,52.69
2019-05-26T20:09:53.357Z,52.37
2019-05-26T20:12:24.279Z,53.56
2019-05-26T20:14:55.221Z,53.51
2019-05-26T20:17:26.117Z,53.77
2019-05-26T20:19:56.960Z,54.82
2019-05-26T20:22:28.026Z,54.89
2019-05-26T20:24:58.909Z,55.22
2019-05-26T20:27:29.818Z,54.29
2019-05-26T20:30:00.911Z,55.16
2019-05-26T20:32:31.805Z,55.14
2019-05-26T20:35:02.736Z,55.87
2019-05-26T20:37:33.636Z,55.32
2019-05-26T20:40:04.875Z,55.33
2019-05-26T20:42:35.868Z,53.77
2019-05-26T20:45:08.403Z,54.43
2019-05-26T20:47:39.292Z,54.48
2019-05-26T20:50:25.881Z,54.50
2019-05-26T20:52:43.431Z,53.54
2019-05-26T20:55:14.496Z,53.45
2019-05-26T20:57:45.408Z,55.46
2019-05-26T21:00:18.003Z,54.50
2019-05-26T21:02:48.912Z,52.56
2019-05-26T21:05:19.932Z,53.00
2019-05-26T21:07:50.724Z,52.13
2019-05-26T21:10:21.694Z,52.48
2019-05-26T21:12:52.627Z,52.21
2019-05-26T21:15:23.438Z,52.76
2019-05-26T21:17:54.304Z,51.81
2019-05-26T21:20:25.255Z,52.25
2019-05-26T21:22:56.103Z,51.20
2019-05-26T21:25:27.537Z,51.27
2019-05-26T21:27:58.381Z,50.05
2019-05-26T21:30:29.636Z,50.72
2019-05-26T21:33:00.463Z,51.17
2019-05-26T21:38:00.794Z,51.76
2019-05-26T21:40:31.627Z,50.96
2019-05-26T21:43:02.462Z,51.70
2019-05-26T21:45:33.293Z,51.78
2019-05-26T21:48:04.116Z,51.03
2019-05-26T21:50:34.923Z,51.80
2019-05-26T21:53:05.957Z,52.61
2019-05-26T21:55:36.787Z,52.59
2019-05-26T21:58:07.697Z,53.03
2019-05-26T22:00:45.251Z,50.45
2019-05-26T22:03:16.257Z,50.14
2019-05-26T22:05:47.292Z,49.11
2019-05-26T22:08:18.138Z,49.22
2019-05-26T22:10:49.052Z,51.63
2019-05-26T22:13:21.304Z,51.68
2019-05-26T22:15:52.211Z,50.00
2019-05-26T22:18:24.110Z,49.62
2019-05-26T22:20:54.960Z,49.51
2019-05-26T22:23:25.888Z,50.72
2019-05-26T22:25:56.732Z,51.28
2019-05-26T22:28:27.629Z,50.98
2019-05-26T22:30:58.510Z,51.39
2019-05-26T22:33:29.376Z,51.77
2019-05-26T22:36:00.190Z,51.64
2019-05-26T22:38:31.047Z,51.76
2019-05-26T22:41:01.939Z,51.53
2019-05-26T22:43:32.945Z,51.68
2019-05-26T22:46:03.936Z,52.98
2019-05-26T22:48:34.758Z,53.60
2019-05-26T22:51:05.871Z,54.55
2019-05-26T22:53:36.751Z,54.01
2019-05-26T22:56:07.614Z,54.10
2019-05-26T22:58:38.581Z,54.41
2019-05-26T23:01:09.623Z,54.37
2019-05-26T23:03:40.486Z,54.30
2019-05-26T23:06:11.430Z,53.56
2019-05-26T23:08:42.401Z,53.66
2019-05-26T23:11:13.368Z,54.26
2019-05-26T23:13:44.252Z,54.08
2019-05-26T23:16:15.132Z,54.43
2019-05-26T23:18:46.049Z,56.65
2019-05-26T23:21:16.991Z,55.35
2019-05-26T23:23:47.996Z,54.60
2019-05-26T23:26:19.039Z,56.89
2019-05-26T23:28:50.033Z,54.80
2019-05-26T23:31:21.201Z,55.84
2019-05-26T23:33:52.038Z,56.47
2019-05-26T23:36:22.973Z,56.73
2019-05-26T23:38:54.039Z,56.80
2019-05-26T23:41:24.887Z,57.02
2019-05-26T23:43:55.712Z,57.11
2019-05-26T23:46:26.560Z,58.70
2019-05-26T23:48:57.503Z,58.76
2019-05-26T23:51:28.388Z,58.91
2019-05-26T23:53:59.185Z,56.77
2019-05-26T23:56:30.023Z,56.66
2019-05-26T23:59:00.886Z,59.16
